Latest Coastal Weather Observations for Avalon

IDV60701

Issued at 1:31 am EST Saturday 4 July 2015 (issued every 10 minutes, with the page automatically refreshed every 10 minutes)

About coastal observations | Map of coastal stations | Coastal observations for VIC | Marine services | Other Formats
Station Details ID: 087113 Name: AVALON AIRPORT Lat: -38.03 Lon: 144.48 Height: 10.6 m
Data from the previous 72 hours. | See also: Recent months at Avalon
Date/Time
EST
Temp

°C
Wind Pressure Rain
since 9am
mm
Weather Cloud Vis
km
Sea
Height
m
Swell
Dir
 
Speed
knots
Gust
knots
hPa Trend Height
m
Period
s
Dir
04/01:30am 8.2 NNW 8 9 1023.1 - 0.0 - Cloudy 10 - - - -
04/01:00am 8.1 NNW 9 11 1023.3 - 0.0 - Partly cloudy 10 - - - -
04/12:30am 8.6 NNW 10 13 1023.6 - 0.0 - Cloudy 10 - - - -
04/12:00am 7.7 N 6 7 1024.1 - 0.0 - Cloudy 10 - - - -
 
Date/Time
EST
Temp

°C
Wind Pressure Rain
since 9am
mm
Weather Cloud Vis
km
Sea
Height
m
Swell
Dir
 
Speed
knots
Gust
knots
hPa Trend Height
m
Period
s
Dir
03/11:30pm 7.6 N 6 7 1024.1 - 0.0 - Cloudy 10 - - - -
03/11:00pm 7.8 N 6 7 1024.2 - 0.0 - Cloudy 10 - - - -
03/10:30pm 7.3 N 8 9 1024.3 - 0.0 - Cloudy 10 - - - -
03/10:00pm 7.4 N 8 9 1024.6 - 0.0 - Cloudy 10 - - - -
03/09:30pm 7.7 N 8 9 1024.7 - 0.0 - Cloudy 10 - - - -
03/09:00pm 7.4 N 7 8 1025.0 - 0.0 - Cloudy 10 - - - -
03/08:30pm 7.4 N 6 7 1025.2 - 0.0 - Cloudy 10 - - - -
03/08:00pm 6.9 N 5 5 1025.4 - 0.0 - Partly cloudy 10 - - - -
03/07:30pm 7.0 NNW 6 7 1025.5 - 0.0 - Partly cloudy 10 - - - -
03/07:00pm 8.6 WNW 6 8 1025.6 - 0.0 - Cloudy 10 - - - -
03/06:30pm 9.1 NW 8 9 1025.7 - 0.0 - Cloudy 10 - - - -
03/06:00pm 9.4 WNW 10 14 1025.7 - 0.0 - Cloudy 10 - - - -
03/05:30pm 9.5 WNW 11 15 1025.6 - 0.0 - Cloudy 10 - - - -
03/05:00pm 9.8 WNW 11 15 1025.6 - 0.0 - Cloudy 10 - - - -
03/04:30pm 10.0 WNW 10 13 1025.9 - 0.0 - Cloudy 10 - - - -
03/04:00pm 10.2 NW 14 16 1026.0 - 0.0 - Cloudy 10 - - - -
03/03:30pm 10.5 NW 12 19 1026.1 - 0.0 - Cloudy 10 - - - -
03/03:00pm 11.2 WNW 13 18 1026.0 - 0.0 - Mostly cloudy 10 - - - -
03/02:30pm 11.0 WNW 15 17 1026.1 - 0.0 - - 10 - - - -
03/02:00pm 11.3 WNW 13 18 1026.2 - 0.0 - Cloudy 10 - - - -
03/01:30pm 11.0 W 12 15 1026.6 - 0.0 - Cloudy 10 - - - -
03/01:00pm 11.0 W 11 16 1026.9 - 0.0 - Cloudy 10 - - - -
03/12:30pm 10.7 W 10 14 1027.1 - 0.0 - Partly cloudy 10 - - - -
03/12:00pm 10.2 WNW 11 13 1027.5 - 0.0 - Partly cloudy 10 - - - -
03/11:30am 11.0 W 11 13 1027.9 - 0.0 - - 10 - - - -
03/11:00am 10.7 W 11 15 1028.3 - 0.0 - Partly cloudy 10 - - - -
03/10:30am 10.1 W 13 17 1028.6 - 0.0 - - 10 - - - -
03/10:00am 9.5 WNW 11 14 1028.8 - 0.0 - - 10 - - - -
03/09:30am 8.5 WNW 10 14 1028.6 - 0.0 - - 10 - - - -
03/09:00am 7.5 WNW 9 11 1028.7 - 1.2 - Mostly cloudy 10 - - - -
03/08:30am 6.4 WNW 8 11 1028.4 - 1.2 - Cloudy 10 - - - -
03/08:00am 6.2 WNW 8 11 1028.0 - 1.2 - Cloudy 10 - - - -
03/07:30am 4.9 NW 5 7 1028.0 - 1.2 - Cloudy 10 - - - -
03/07:00am 4.6 WNW 6 7 1027.9 - 1.2 - Partly cloudy 10 - - - -
03/06:30am 3.4 WNW 6 7 1027.8 - 1.2 - Partly cloudy 10 - - - -
03/06:00am 4.6 W 7 9 1027.8 - 1.2 - Mostly clear 10 - - - -
03/05:30am 4.3 WNW 7 8 1027.7 - 1.2 - Partly cloudy 10 - - - -
03/05:00am 4.5 WNW 8 9 1027.6 - 1.2 - Partly cloudy 10 - - - -
03/04:30am 4.9 WNW 7 9 1027.9 - 1.2 - Partly cloudy 10 - - - -
03/04:00am 4.5 SSE 1 4 1028.1 - 1.0 - Partly cloudy 10 - - - -
03/03:30am 4.4 NW 5 6 1027.9 - 1.0 - Partly cloudy 10 - - - -
03/03:00am 4.5 NW 6 8 1028.1 - 1.0 - Partly cloudy 10 - - - -
03/02:30am 4.0 WNW 7 9 1028.1 - 1.0 - - 10 - - - -
03/02:00am 4.4 WNW 7 8 1028.2 - 1.0 - - 10 - - - -
03/01:30am 4.5 WNW 7 8 1028.1 - 1.0 - Partly cloudy 10 - - - -
03/01:00am 5.0 WNW 8 11 1028.3 - 1.0 - - 10 - - - -
03/12:30am 5.5 WNW 8 10 1028.5 - 1.0 - Partly cloudy 10 - - - -
03/12:00am 6.4 WNW 10 12 1028.6 - 1.0 Drizzle Mostly cloudy 10 - - - -
 
Date/Time
EST
Temp

°C
Wind Pressure Rain
since 9am
mm
Weather Cloud Vis
km
Sea
Height
m
Swell
Dir
 
Speed
knots
Gust
knots
hPa Trend Height
m
Period
s
Dir
02/11:30pm 5.7 W 8 10 1029.0 - 1.0 - Partly cloudy 10 - - - -
02/11:00pm 5.4 W 7 9 1028.9 - 1.0 - Partly cloudy 10 - - - -
02/10:30pm 5.2 W 7 8 1028.7 - 1.0 - - 10 - - - -
02/10:00pm 6.1 W 10 13 1028.5 - 1.0 - Partly cloudy 10 - - - -
02/09:30pm 6.3 W 8 11 1028.4 - 1.0 - Partly cloudy 10 - - - -
02/09:00pm 6.4 WNW 9 11 1028.2 - 1.0 - Mostly cloudy 10 - - - -
02/08:30pm 5.9 WNW 8 9 1028.1 - 1.0 - - 10 - - - -
02/08:00pm 6.4 WNW 6 8 1028.0 - 1.0 - Partly cloudy 10 - - - -
02/07:30pm 7.1 WSW 8 10 1028.0 - 1.0 - Partly cloudy 10 - - - -
02/07:00pm 6.8 WNW 8 10 1027.4 - 1.0 - Partly cloudy 10 - - - -
02/06:30pm 7.9 W 8 11 1027.1 - 1.0 - Partly cloudy 10 - - - -
02/06:00pm 9.7 SW 12 15 1026.9 - 1.0 Showers Cloudy 10 - - - -
02/05:30pm 8.9 SW 10 15 1026.8 - 1.0 - Partly cloudy 10 - - - -
02/05:00pm 9.6 SW 10 15 1026.4 - 1.0 - Partly cloudy 10 - - - -
02/04:30pm 10.3 SSW 11 14 1025.9 - 1.0 - Partly cloudy 10 - - - -
02/04:00pm 11.9 SW 13 18 1025.6 - 1.0 - Partly cloudy 10 - - - -
02/03:30pm 11.8 SW 15 20 1025.3 - 1.0 - Partly cloudy 10 - - - -
02/03:00pm 11.8 SW 17 24 1024.9 - 1.0 - Mostly cloudy 10 - - - -
02/02:30pm 11.8 WSW 16 21 1024.9 - 1.0 - Partly cloudy 10 - - - -
02/02:00pm 11.6 SW 17 22 1024.4 - 1.0 - - 10 - - - -
02/01:30pm 11.3 SW 19 27 1024.3 - 1.0 - Partly cloudy 10 - - - -
02/01:00pm 11.3 SW 22 27 1024.2 - 1.0 - Partly cloudy 10 - - - -
02/12:30pm 11.7 SW 20 26 1023.8 - 1.0 - Partly cloudy 10 - - - -
02/12:00pm 11.1 SW 18 25 1023.6 - 1.0 - - 10 - - - -
02/11:38am 10.3 SW 19 31 1023.6 - 1.0 - Partly cloudy 10 - - - -
02/11:30am 10.5 SW 16 24 1023.6 - 1.0 - Partly cloudy 10 - - - -
02/11:19am 11.1 SW 17 28 1023.5 - 1.0 - Partly cloudy 10 - - - -
02/11:00am 10.7 WSW 17 23 1023.5 - 1.0 - Partly cloudy 10 - - - -
02/10:30am 9.9 W 16 22 1023.0 - 1.0 - - 10 - - - -
02/10:00am 8.7 W 15 22 1022.6 - 1.0 - Partly cloudy 10 - - - -
02/09:37am 8.5 WSW 18 29 1022.7 - 1.0 - Partly cloudy 10 - - - -
02/09:30am 8.5 WSW 14 19 1022.4 - 1.0 - Partly cloudy 10 - - - -
02/09:29am 8.5 WSW 14 19 1022.3 - 1.0 - Partly cloudy 10 - - - -
02/09:03am 8.8 W 17 29 1021.8 - 0.2 - Partly cloudy 6 - - - -
02/09:01am 9.1 W 15 26 1021.6 - 0.0 - Partly cloudy 9 - - - -
02/09:00am 9.1 W 14 25 1021.5 - - Showers Cloudy 10 - - - -
02/08:30am 9.1 WNW 15 22 1020.8 - - - Partly cloudy 10 - - - -
02/08:00am 9.8 WNW 17 24 1020.4 - - - Partly cloudy 10 - - - -
02/07:30am 8.9 WNW 14 17 1019.9 - - - Partly cloudy 10 - - - -
02/07:00am 8.9 WNW 12 15 1019.7 - - - Partly cloudy 10 - - - -
02/06:30am 9.6 WNW 11 14 1019.3 - - - Partly cloudy 10 - - - -
02/06:00am 10.4 WNW 15 18 1019.3 - - - Cloudy 10 - - - -
02/05:30am 10.9 W 13 18 1019.0 - - - Partly cloudy 10 - - - -
02/05:00am 10.9 W 13 19 1018.9 - - - Partly cloudy 10 - - - -
02/04:30am 11.4 WNW 15 20 1018.7 - - - Partly cloudy 10 - - - -
02/04:00am 11.5 WNW 16 22 1018.5 - - - Partly cloudy 10 - - - -
02/03:45am 11.6 WNW 20 30 1018.5 - - - Partly cloudy 10 - - - -
02/03:30am 11.5 WNW 21 29 1018.4 - - - Partly cloudy 10 - - - -
02/03:00am 12.7 WNW 20 29 1018.3 - 0.0 - Mostly cloudy 10 - - - -
02/02:51am 12.9 WNW 15 26 1018.2 - - - Partly cloudy 10 - - - -
02/02:30am 12.9 NW 16 19 1018.4 - - - Partly cloudy 10 - - - -
02/02:01am 13.1 NW 17 26 1018.2 - - - Cloudy 10 - - - -
02/02:00am 13.1 NW 16 24 1018.2 - - - Partly cloudy 10 - - - -
02/01:30am 12.8 NW 13 17 1018.2 - - - Partly cloudy 10 - - - -
02/01:00am 12.5 NW 14 18 1018.7 - - - Partly cloudy 10 - - - -
02/12:30am 12.6 NW 15 21 1019.2 - - - Partly cloudy 10 - - - -
02/12:00am 12.7 NW 17 24 1019.7 - - - - 10 - - - -
 
Date/Time
EST
Temp

°C
Wind Pressure Rain
since 9am
mm
Weather Cloud Vis
km
Sea
Height
m
Swell
Dir
 
Speed
knots
Gust
knots
hPa Trend Height
m
Period
s
Dir
01/11:30pm 12.9 NW 17 21 1019.9 - - - Partly cloudy 10 - - - -
01/11:00pm 12.7 NW 16 21 1020.3 - - - Partly cloudy 10 - - - -
01/10:30pm 11.7 NW 13 19 1020.6 - - - Cloudy 10 - - - -
01/10:00pm 11.3 NNW 14 17 1020.9 - - - Partly cloudy 10 - - - -
01/09:30pm 10.9 NNW 15 21 1021.0 - - - - 10 - - - -
01/09:00pm 11.2 NNW 15 19 1021.3 - 0.0 - Mostly clear 10 - - - -
01/08:30pm 12.1 NW 17 23 1021.2 - - - Partly cloudy 10 - - - -
01/08:00pm 11.9 NW 16 23 1021.4 - - - - 10 - - - -
01/07:30pm 11.9 NW 15 19 1021.4 - - - Partly cloudy 10 - - - -
01/07:00pm 11.3 NW 11 14 1021.5 - - - Partly cloudy 10 - - - -
01/06:30pm 11.1 NW 9 13 1021.8 - - - - 10 - - - -
01/06:00pm 11.2 NNW 8 11 1021.8 - - - Cloudy 10 - - - -
01/05:30pm 12.2 NNW 10 13 1021.8 - - - Partly cloudy 10 - - - -
01/05:00pm 12.8 NNW 10 15 1022.0 - - - Partly cloudy 10 - - - -
01/04:30pm 13.6 NW 14 18 1022.2 - - - - 10 - - - -
01/04:00pm 13.8 NW 11 16 1022.4 - - - - 10 - - - -
01/03:30pm 14.0 NW 13 18 1022.5 - - - Partly cloudy 10 - - - -
01/03:00pm 14.1 NW 13 19 1022.8 - 0.0 Fine - 10 - - - -
01/02:30pm - - - - - - - - - 10 - - - -
01/02:00pm - - - - - - - - - 10 - - - -
01/01:30pm 14.3 NW 13 17 1023.9 - 0.0 - Cloudy 10 - - - -
01/01:00pm 14.7 NW 14 17 1024.3 - 0.0 - Partly cloudy 10 - - - -
01/12:30pm 14.4 NW 17 21 1024.7 - 0.0 - - 10 - - - -
01/12:00pm 14.5 NW 14 21 1025.2 - 0.0 - Mostly clear 10 - - - -
01/11:30am 14.1 NW 15 21 1025.8 - 0.0 - Partly cloudy 10 - - - -
01/11:00am 13.4 NNW 13 17 1026.5 - 0.0 - Partly cloudy 10 - - - -
01/10:30am 12.9 NNW 12 16 1027.0 - 0.0 - Partly cloudy 10 - - - -
01/10:00am 11.3 NNW 10 12 1027.4 - 0.0 - Cloudy 10 - - - -
01/09:30am 10.8 NW 10 12 1027.7 - 0.0 - Cloudy 10 - - - -
01/09:00am 10.4 NNW 8 9 1027.5 - 0.0 - Cloudy 10 - - - -
01/08:30am 9.5 NNW 8 9 1027.6 - 0.0 - Cloudy 10 - - - -
01/08:00am 9.3 NW 7 9 1027.6 - 0.0 - Cloudy 10 - - - -
01/07:30am 9.2 NW 7 9 1027.4 - 0.0 - Cloudy 10 - - - -
01/07:00am 9.3 NW 7 8 1027.3 - 0.0 - Cloudy 10 - - - -
01/06:30am 9.1 NW 7 8 1027.2 - 0.0 - Cloudy 10 - - - -
01/06:00am 8.5 WNW 6 7 1027.1 - 0.0 - Cloudy 10 - - - -
01/05:30am 8.9 WNW 6 6 1027.1 - 0.0 - Cloudy 10 - - - -
01/05:00am 9.0 WNW 2 5 1027.3 - 0.0 - Cloudy 10 - - - -
01/04:30am 8.9 CALM 0 0 1027.4 - 0.0 - Cloudy 10 - - - -
01/04:00am 8.7 CALM 0 0 1027.3 - 0.0 - Cloudy 10 - - - -
01/03:30am 8.6 NW 3 4 1027.4 - 0.0 - Cloudy 10 - - - -
01/03:00am 9.1 WNW 4 5 1027.6 - 0.0 - Cloudy 10 - - - -
01/02:30am 9.1 WNW 6 7 1027.6 - 0.0 - Cloudy 10 - - - -
01/02:00am 9.2 WNW 7 8 1027.7 - 0.0 - Cloudy 10 - - - -

Other Formats:

Comma delimited format used in spreadsheet applications
http://www.bom.gov.au/fwo/IDV60701/IDV60701.94854.axf

JavaScript Object Notation format (JSON) in row-major order
http://www.bom.gov.au/fwo/IDV60701/IDV60701.94854.json